createdAt,value
2018-06-01T00:00:30.052Z,14.23
2018-06-01T00:01:30.034Z,14.17
2018-06-01T00:02:30.001Z,14.18
2018-06-01T00:03:30.004Z,14.37
2018-06-01T00:04:30.065Z,14.19
2018-06-01T00:05:30.050Z,14.27
2018-06-01T00:06:30.041Z,14.33
2018-06-01T00:07:30.034Z,14.14
2018-06-01T00:08:30.038Z,14.13
2018-06-01T00:09:30.027Z,14.17
2018-06-01T00:10:30.026Z,14.06
2018-06-01T00:11:30.050Z,14.15
2018-06-01T00:12:30.090Z,14.25
2018-06-01T00:13:30.040Z,13.99
2018-06-01T00:14:30.052Z,14.05
2018-06-01T00:15:30.139Z,14.04
2018-06-01T00:16:30.036Z,14.06
2018-06-01T00:17:30.080Z,14.18
2018-06-01T00:18:30.120Z,14.18
2018-06-01T00:19:30.083Z,14.05
2018-06-01T00:20:30.016Z,13.96
2018-06-01T00:21:30.060Z,14.08
2018-06-01T00:22:30.206Z,14.03
2018-06-01T00:23:30.131Z,14.1
2018-06-01T00:24:30.039Z,14.07
2018-06-01T00:25:30.121Z,14.22
2018-06-01T00:26:30.023Z,14
2018-06-01T00:27:30.069Z,14.01
2018-06-01T00:28:30.079Z,14.15
2018-06-01T00:29:30.079Z,14.3
2018-06-01T00:30:30.042Z,14.23
2018-06-01T00:31:30.057Z,14.14
2018-06-01T00:32:30.106Z,14.05
2018-06-01T00:33:30.050Z,14.31
2018-06-01T00:34:30.075Z,14.37
2018-06-01T00:35:30.119Z,14.45
2018-06-01T00:36:30.083Z,14.08
2018-06-01T00:37:30.060Z,14.05
2018-06-01T00:38:30.085Z,14.12
2018-06-01T00:39:30.136Z,14.01
2018-06-01T00:40:30.171Z,13.96
2018-06-01T00:41:30.118Z,14.09
2018-06-01T00:42:30.079Z,14.12
2018-06-01T00:43:30.086Z,14.05
2018-06-01T00:44:30.044Z,14.14
2018-06-01T00:45:30.073Z,14.09
2018-06-01T00:46:30.189Z,14.17
2018-06-01T00:47:30.048Z,14.15
2018-06-01T00:48:30.043Z,14.13
2018-06-01T00:49:30.189Z,13.9
2018-06-01T00:50:30.063Z,13.99
2018-06-01T00:51:30.055Z,14.01
2018-06-01T00:52:30.071Z,14.01
2018-06-01T00:53:30.066Z,14.02
2018-06-01T00:54:30.048Z,14.03
2018-06-01T00:55:30.051Z,14.14
2018-06-01T00:56:30.061Z,13.97
2018-06-01T00:57:30.081Z,13.86
2018-06-01T00:58:30.072Z,13.87
2018-06-01T00:59:30.109Z,13.87
2018-06-01T01:00:30.176Z,13.97
2018-06-01T01:01:30.069Z,13.97
2018-06-01T01:02:30.068Z,14.02
2018-06-01T01:03:30.065Z,14.04
2018-06-01T01:04:30.099Z,14
2018-06-01T01:05:30.066Z,13.86
2018-06-01T01:06:30.090Z,13.83
2018-06-01T01:07:30.107Z,13.91
2018-06-01T01:08:30.056Z,13.8
2018-06-01T01:09:30.077Z,13.79
2018-06-01T01:10:30.111Z,13.73
2018-06-01T01:11:30.110Z,13.83
2018-06-01T01:12:30.094Z,13.72
2018-06-01T01:13:30.143Z,13.74
2018-06-01T01:14:30.083Z,13.77
2018-06-01T01:15:30.069Z,13.72
2018-06-01T01:16:30.049Z,13.69
2018-06-01T01:17:30.099Z,13.8
2018-06-01T01:18:30.051Z,13.76
2018-06-01T01:19:30.068Z,13.82
2018-06-01T01:20:30.104Z,13.79
2018-06-01T01:21:30.131Z,13.84
2018-06-01T01:22:30.115Z,13.79
2018-06-01T01:23:30.067Z,13.78
2018-06-01T01:24:30.214Z,13.96
2018-06-01T01:25:30.197Z,13.92
2018-06-01T01:26:30.075Z,14.03
2018-06-01T01:27:30.079Z,13.9
2018-06-01T01:28:30.110Z,13.86
2018-06-01T01:29:30.098Z,14.04
2018-06-01T01:30:30.114Z,14.06
2018-06-01T01:31:30.193Z,13.96
2018-06-01T01:32:30.074Z,13.94
2018-06-01T01:33:30.081Z,13.95
2018-06-01T01:34:30.115Z,13.91
2018-06-01T01:35:30.095Z,13.8
2018-06-01T01:36:30.083Z,13.87
2018-06-01T01:37:30.093Z,13.87
2018-06-01T01:38:30.110Z,13.91
2018-06-01T01:39:30.103Z,13.88
2018-06-01T01:40:30.085Z,13.82
2018-06-01T01:41:30.076Z,13.83
2018-06-01T01:42:30.218Z,13.83
2018-06-01T01:43:30.069Z,13.92
2018-06-01T01:44:30.317Z,13.74
2018-06-01T01:45:30.118Z,13.88
2018-06-01T01:46:30.103Z,13.88
2018-06-01T01:47:30.109Z,13.74
2018-06-01T01:48:30.105Z,13.94
2018-06-01T01:49:30.103Z,14.01
2018-06-01T01:50:30.078Z,13.87
2018-06-01T01:51:30.124Z,13.82
2018-06-01T01:52:30.128Z,13.89
2018-06-01T01:53:30.109Z,13.95
2018-06-01T01:54:30.094Z,13.96
2018-06-01T01:55:30.122Z,14.03
2018-06-01T01:56:30.115Z,13.93
2018-06-01T01:57:30.129Z,14.04
2018-06-01T01:58:30.134Z,14.03
2018-06-01T01:59:30.163Z,14.08
2018-06-01T02:00:30.088Z,14
2018-06-01T02:01:30.099Z,14.09
2018-06-01T02:02:30.272Z,14.18
2018-06-01T02:03:30.103Z,14.03
2018-06-01T02:04:30.199Z,13.89
2018-06-01T02:05:30.200Z,13.97
2018-06-01T02:06:30.091Z,14.04
2018-06-01T02:07:30.079Z,14.11
2018-06-01T02:08:30.116Z,14.11
2018-06-01T02:09:30.154Z,14.05
2018-06-01T02:10:30.474Z,14.18
2018-06-01T02:11:30.173Z,14.14
2018-06-01T02:12:30.181Z,14.06
2018-06-01T02:13:30.154Z,14.08
2018-06-01T02:14:30.171Z,14.01
2018-06-01T02:15:30.144Z,13.96
2018-06-01T02:16:30.169Z,14.06
2018-06-01T02:17:30.161Z,13.98
2018-06-01T02:18:30.162Z,13.79
2018-06-01T02:19:30.165Z,13.86
2018-06-01T02:20:30.272Z,13.89
2018-06-01T02:21:30.111Z,13.93
2018-06-01T02:22:30.112Z,13.92
2018-06-01T02:23:30.142Z,13.97
2018-06-01T02:24:30.131Z,14.08
2018-06-01T02:25:30.160Z,13.88
2018-06-01T02:26:30.143Z,13.87
2018-06-01T02:27:30.166Z,13.96
2018-06-01T02:28:30.153Z,13.95
2018-06-01T02:29:30.163Z,13.71
2018-06-01T02:30:30.172Z,13.96
2018-06-01T02:31:30.322Z,13.86
2018-06-01T02:32:30.148Z,13.88
2018-06-01T02:33:30.164Z,13.89
2018-06-01T02:34:30.201Z,13.86
2018-06-01T02:35:30.919Z,13.94
2018-06-01T02:36:30.179Z,13.87
2018-06-01T02:37:30.143Z,13.88
2018-06-01T02:38:30.168Z,13.8
2018-06-01T02:39:30.308Z,13.86
2018-06-01T02:40:30.168Z,13.75
2018-06-01T02:41:30.182Z,13.82
2018-06-01T02:42:30.156Z,13.87
2018-06-01T02:43:30.163Z,13.82
2018-06-01T02:44:30.198Z,13.77
2018-06-01T02:45:30.197Z,13.76
2018-06-01T02:46:30.187Z,13.78
2018-06-01T02:47:30.203Z,13.75
2018-06-01T02:48:30.681Z,13.73
2018-06-01T02:49:30.171Z,13.79
2018-06-01T02:50:30.145Z,13.8
2018-06-01T02:51:30.186Z,13.65
2018-06-01T02:52:30.242Z,13.68
2018-06-01T02:53:30.156Z,13.58
2018-06-01T02:54:30.162Z,13.65
2018-06-01T02:55:30.157Z,13.62
2018-06-01T02:56:30.399Z,13.76
2018-06-01T02:57:30.175Z,13.63
2018-06-01T02:58:30.156Z,13.6
2018-06-01T02:59:30.197Z,13.56
2018-06-01T03:00:30.167Z,13.57
2018-06-01T03:01:30.176Z,13.57
2018-06-01T03:02:30.281Z,13.61
2018-06-01T03:03:30.138Z,13.53
2018-06-01T03:04:30.163Z,13.49
2018-06-01T03:05:30.171Z,13.46
2018-06-01T03:06:30.136Z,13.44
2018-06-01T03:07:30.180Z,13.56
2018-06-01T03:08:30.262Z,13.39
2018-06-01T03:09:30.150Z,13.4
2018-06-01T03:10:30.133Z,13.41
2018-06-01T03:11:30.193Z,13.4
2018-06-01T03:12:30.166Z,13.42
2018-06-01T03:13:30.146Z,13.47
2018-06-01T03:14:30.163Z,13.5
2018-06-01T03:15:30.188Z,13.43
2018-06-01T03:16:30.134Z,13.51
2018-06-01T03:17:30.166Z,13.53
2018-06-01T03:18:30.140Z,13.47
2018-06-01T03:19:30.156Z,13.52
2018-06-01T03:20:30.441Z,13.43
2018-06-01T03:21:30.140Z,13.51
2018-06-01T03:22:30.168Z,13.41
2018-06-01T03:23:30.220Z,13.37
2018-06-01T03:24:30.173Z,13.41
2018-06-01T03:25:30.231Z,13.49
2018-06-01T03:26:30.186Z,13.48
2018-06-01T03:27:30.153Z,13.55
2018-06-01T03:28:30.197Z,13.55
2018-06-01T03:29:30.173Z,13.49
2018-06-01T03:30:30.372Z,13.36
2018-06-01T03:31:30.167Z,13.33
2018-06-01T03:32:30.177Z,13.38
2018-06-01T03:33:30.150Z,13.43
2018-06-01T03:34:30.140Z,13.43
2018-06-01T03:35:30.145Z,13.39
2018-06-01T03:36:30.165Z,13.43
2018-06-01T03:37:30.187Z,13.5
2018-06-01T03:38:30.208Z,13.43
2018-06-01T03:39:30.165Z,13.46
2018-06-01T03:40:30.162Z,13.44
2018-06-01T03:41:30.148Z,13.55
2018-06-01T03:42:30.183Z,13.48
2018-06-01T03:43:30.190Z,13.51
2018-06-01T03:44:30.187Z,13.57
2018-06-01T03:45:30.169Z,13.55
2018-06-01T03:46:30.184Z,13.52
2018-06-01T03:47:30.277Z,13.39
2018-06-01T03:48:30.187Z,13.42
2018-06-01T03:49:30.179Z,13.46
2018-06-01T03:50:30.180Z,13.47
2018-06-01T03:51:30.153Z,13.58
2018-06-01T03:52:30.187Z,13.57
2018-06-01T03:53:30.235Z,13.56
2018-06-01T03:54:30.241Z,13.6
2018-06-01T03:55:30.212Z,13.7
2018-06-01T03:56:30.231Z,13.59
2018-06-01T03:57:30.179Z,13.55
2018-06-01T03:58:30.360Z,13.56
2018-06-01T03:59:30.199Z,13.55
2018-06-01T04:00:30.196Z,13.56
2018-06-01T04:01:30.221Z,13.52
2018-06-01T04:02:30.167Z,13.51
2018-06-01T04:03:30.191Z,13.6
2018-06-01T04:04:30.177Z,13.61
2018-06-01T04:05:30.174Z,13.65
2018-06-01T04:06:30.247Z,13.61
2018-06-01T04:07:30.294Z,13.64
2018-06-01T04:08:30.162Z,13.66
2018-06-01T04:09:30.209Z,13.67
2018-06-01T04:10:30.315Z,13.71
2018-06-01T04:11:30.211Z,13.65
2018-06-01T04:12:30.143Z,13.67
2018-06-01T04:13:30.189Z,13.6
2018-06-01T04:14:30.212Z,13.59
2018-06-01T04:15:30.208Z,13.65
2018-06-01T04:16:30.163Z,13.65
2018-06-01T04:17:30.223Z,13.66
2018-06-01T04:18:30.229Z,13.65
2018-06-01T04:19:30.163Z,13.63
2018-06-01T04:20:30.264Z,13.68
2018-06-01T04:21:30.253Z,13.7
2018-06-01T04:22:30.193Z,13.65
2018-06-01T04:23:30.189Z,13.7
2018-06-01T04:24:30.191Z,13.7
2018-06-01T04:25:30.243Z,13.69
2018-06-01T04:26:30.228Z,13.66
2018-06-01T04:27:30.243Z,13.75
2018-06-01T04:28:30.262Z,13.77
2018-06-01T04:29:30.194Z,13.72
2018-06-01T04:30:30.227Z,13.75
2018-06-01T04:31:30.159Z,13.79
2018-06-01T04:32:30.197Z,13.71
2018-06-01T04:33:30.162Z,13.8
2018-06-01T04:34:30.203Z,13.79
2018-06-01T04:35:30.203Z,13.72
2018-06-01T04:36:30.196Z,13.68
2018-06-01T04:37:30.202Z,13.69
2018-06-01T04:38:30.239Z,13.7
2018-06-01T04:39:30.255Z,13.71
2018-06-01T04:40:30.434Z,13.65
2018-06-01T04:41:30.200Z,13.74
2018-06-01T04:42:30.223Z,13.77
2018-06-01T04:43:30.215Z,13.79
2018-06-01T04:44:30.184Z,13.67
2018-06-01T04:45:30.198Z,13.7
2018-06-01T04:46:30.266Z,13.76
2018-06-01T04:47:30.192Z,13.71
2018-06-01T04:48:30.226Z,13.67
2018-06-01T04:49:30.216Z,13.58
2018-06-01T04:50:30.215Z,13.61
2018-06-01T04:51:30.270Z,13.69
2018-06-01T04:52:30.196Z,13.69
2018-06-01T04:53:30.208Z,13.75
2018-06-01T04:54:30.204Z,13.75
2018-06-01T04:55:30.240Z,13.7
2018-06-01T04:56:30.247Z,13.66
2018-06-01T04:57:30.221Z,13.74
2018-06-01T04:58:30.190Z,13.63
2018-06-01T04:59:30.220Z,13.71
2018-06-01T05:00:30.358Z,13.67
2018-06-01T05:01:30.405Z,13.73
2018-06-01T05:02:30.235Z,13.68
2018-06-01T05:03:30.200Z,13.7
2018-06-01T05:04:30.214Z,13.68
2018-06-01T05:05:30.179Z,13.62
2018-06-01T05:06:30.215Z,13.7
2018-06-01T05:07:30.224Z,13.76
2018-06-01T05:08:30.270Z,13.71
2018-06-01T05:09:30.220Z,13.69
2018-06-01T05:10:30.224Z,13.7
2018-06-01T05:11:30.230Z,13.6
2018-06-01T05:12:30.294Z,13.7
2018-06-01T05:13:30.221Z,13.69
2018-06-01T05:14:30.243Z,13.63
2018-06-01T05:15:30.314Z,13.7
2018-06-01T05:16:30.471Z,13.69
2018-06-01T05:17:30.313Z,13.69
2018-06-01T05:18:30.193Z,13.73
2018-06-01T05:19:30.236Z,13.84
2018-06-01T05:20:30.395Z,13.88
2018-06-01T05:21:30.241Z,13.73
2018-06-01T05:22:30.210Z,13.69
2018-06-01T05:23:30.217Z,13.63
2018-06-01T05:24:30.256Z,13.7
2018-06-01T05:25:30.304Z,13.76
2018-06-01T05:26:30.293Z,13.75
2018-06-01T05:27:30.261Z,13.75
2018-06-01T05:28:30.339Z,13.71
2018-06-01T05:29:30.214Z,13.72
2018-06-01T05:30:30.281Z,13.82
2018-06-01T05:31:30.234Z,13.65
2018-06-01T05:32:30.233Z,13.7
2018-06-01T05:33:30.244Z,13.71
2018-06-01T05:34:30.323Z,13.69
2018-06-01T05:35:30.635Z,13.73
2018-06-01T05:36:30.326Z,13.73
2018-06-01T05:37:30.284Z,13.82
2018-06-01T05:38:30.268Z,13.88
2018-06-01T05:39:30.515Z,13.79
2018-06-01T05:40:30.298Z,13.64
2018-06-01T05:41:30.415Z,13.68
2018-06-01T05:42:30.307Z,13.76
2018-06-01T05:43:30.282Z,13.82
2018-06-01T05:44:30.305Z,13.74
2018-06-01T05:45:30.260Z,13.66
2018-06-01T05:46:30.244Z,13.72
2018-06-01T05:47:30.850Z,13.73
2018-06-01T05:48:30.377Z,13.83
2018-06-01T05:49:30.207Z,13.72
2018-06-01T05:50:30.208Z,13.66
2018-06-01T05:51:30.213Z,13.7
2018-06-01T05:52:30.290Z,13.69
2018-06-01T05:53:30.267Z,13.69
2018-06-01T05:54:30.619Z,13.69
2018-06-01T05:55:30.258Z,13.74
2018-06-01T05:56:30.258Z,13.79
2018-06-01T05:57:30.226Z,13.75
2018-06-01T05:58:30.271Z,13.75
2018-06-01T05:59:30.260Z,13.87
2018-06-01T06:00:30.269Z,13.8
2018-06-01T06:01:30.266Z,13.85
2018-06-01T06:02:30.272Z,13.86
2018-06-01T06:03:30.296Z,13.89
2018-06-01T06:04:30.534Z,13.98
2018-06-01T06:05:30.229Z,13.99
2018-06-01T06:06:30.257Z,14.06
2018-06-01T06:07:30.198Z,14.04
2018-06-01T06:08:30.246Z,14.09
2018-06-01T06:09:30.285Z,14.03
2018-06-01T06:10:30.232Z,13.95
2018-06-01T06:11:30.253Z,13.95
2018-06-01T06:12:30.289Z,14.03
2018-06-01T06:13:30.727Z,13.95
2018-06-01T06:14:30.251Z,14.02
2018-06-01T06:15:30.630Z,14.08
2018-06-01T06:16:30.379Z,14.09
2018-06-01T06:17:30.307Z,14.06
2018-06-01T06:18:30.293Z,14.05
2018-06-01T06:19:30.352Z,14.06
2018-06-01T06:20:30.330Z,14.17
2018-06-01T06:21:30.278Z,14.12
2018-06-01T06:22:30.308Z,14.18
2018-06-01T06:23:30.303Z,14.08
2018-06-01T06:24:30.237Z,14.11
2018-06-01T06:25:30.364Z,14.04
2018-06-01T06:26:30.248Z,14.07
2018-06-01T06:27:30.258Z,14.09
2018-06-01T06:28:30.275Z,14.14
2018-06-01T06:29:30.373Z,14.14
2018-06-01T06:30:30.266Z,14.12
2018-06-01T06:31:30.616Z,14.18
2018-06-01T06:32:30.303Z,14.17
2018-06-01T06:33:30.298Z,14.21
2018-06-01T06:34:30.481Z,14.18
2018-06-01T06:35:30.261Z,14.15
2018-06-01T06:36:30.305Z,14.08
2018-06-01T06:37:30.421Z,14.1
2018-06-01T06:38:30.351Z,14
2018-06-01T06:39:30.300Z,13.99
2018-06-01T06:40:30.264Z,14.07
2018-06-01T06:41:30.313Z,14.14
2018-06-01T06:42:30.260Z,14.22
2018-06-01T06:43:30.336Z,13.94
2018-06-01T06:44:30.309Z,13.99
2018-06-01T06:45:30.248Z,14.02
2018-06-01T06:46:30.367Z,14.03
2018-06-01T06:47:30.295Z,14.17
2018-06-01T06:48:30.260Z,14.06
2018-06-01T06:49:30.344Z,14.02
2018-06-01T06:50:30.278Z,14.06
2018-06-01T06:51:30.322Z,14.04
2018-06-01T06:52:30.337Z,14.07
2018-06-01T06:53:30.314Z,14.18
2018-06-01T06:54:30.349Z,14.27
2018-06-01T06:55:30.312Z,14.24
2018-06-01T06:56:30.376Z,14.29
2018-06-01T06:57:30.344Z,14.26
2018-06-01T06:58:30.266Z,14.12
2018-06-01T06:59:30.319Z,13.81
2018-06-01T07:00:30.320Z,13.88
2018-06-01T07:01:30.316Z,13.95
2018-06-01T07:02:30.257Z,13.97
2018-06-01T07:03:30.334Z,14.08
2018-06-01T07:04:31.192Z,14.03
2018-06-01T07:05:30.296Z,14.01
2018-06-01T07:06:30.277Z,14.02
2018-06-01T07:07:30.284Z,14.03
2018-06-01T07:08:30.251Z,14.12
2018-06-01T07:09:30.263Z,13.97
2018-06-01T07:10:30.281Z,13.99
2018-06-01T07:11:30.279Z,14.11
2018-06-01T07:12:30.635Z,14.07
2018-06-01T07:13:30.279Z,14
2018-06-01T07:14:30.292Z,14.03
2018-06-01T07:15:30.275Z,13.9
2018-06-01T07:16:30.298Z,13.97
2018-06-01T07:17:30.301Z,13.82
2018-06-01T07:18:30.331Z,13.78
2018-06-01T07:19:30.313Z,13.84
2018-06-01T07:20:30.906Z,13.87
2018-06-01T07:21:30.377Z,14.02
2018-06-01T07:22:31.052Z,13.84
2018-06-01T07:23:30.289Z,13.77
2018-06-01T07:24:30.408Z,13.85
2018-06-01T07:25:30.255Z,13.92
2018-06-01T07:26:30.410Z,13.9
2018-06-01T07:27:30.272Z,13.95
2018-06-01T07:28:30.285Z,13.73
2018-06-01T07:29:30.346Z,13.78
2018-06-01T07:30:30.303Z,13.79
2018-06-01T07:31:30.311Z,13.77
2018-06-01T07:32:30.340Z,13.71
2018-06-01T07:33:30.316Z,13.77
2018-06-01T07:34:30.377Z,13.92
2018-06-01T07:35:30.336Z,13.79
2018-06-01T07:36:30.334Z,13.9
2018-06-01T07:37:30.433Z,13.93
2018-06-01T07:38:30.331Z,13.91
2018-06-01T07:39:30.322Z,13.86
2018-06-01T07:40:30.288Z,14.04
2018-06-01T07:41:30.339Z,13.98
2018-06-01T07:42:30.354Z,13.94
2018-06-01T07:43:30.350Z,14.09
2018-06-01T07:44:30.334Z,13.81
2018-06-01T07:45:30.324Z,13.66
2018-06-01T07:46:30.325Z,13.84
2018-06-01T07:47:30.344Z,13.72
2018-06-01T07:48:30.305Z,13.87
2018-06-01T07:49:30.368Z,13.98
2018-06-01T07:50:30.424Z,14
2018-06-01T07:51:30.357Z,14.04
2018-06-01T07:52:30.328Z,13.96
2018-06-01T07:53:30.364Z,14.09
2018-06-01T07:54:30.811Z,13.89
2018-06-01T07:55:30.325Z,13.86
2018-06-01T07:56:30.341Z,13.77
2018-06-01T07:57:30.310Z,13.72
2018-06-01T07:58:30.340Z,13.74
2018-06-01T07:59:30.342Z,13.86
2018-06-01T08:00:30.335Z,13.92
2018-06-01T08:01:30.307Z,13.98
2018-06-01T08:02:30.301Z,14.08
2018-06-01T08:03:30.667Z,14.15
2018-06-01T08:04:30.343Z,14.04
2018-06-01T08:05:30.443Z,14.08
2018-06-01T08:06:30.359Z,14.16
2018-06-01T08:07:31.903Z,14.15
2018-06-01T08:08:30.292Z,13.95
2018-06-01T08:09:30.345Z,13.95
2018-06-01T08:10:30.324Z,13.8
2018-06-01T08:11:30.911Z,13.91
2018-06-01T08:12:30.301Z,13.89
2018-06-01T08:13:30.425Z,13.74
2018-06-01T08:14:30.375Z,13.83
2018-06-01T08:15:30.455Z,14.01
2018-06-01T08:16:30.504Z,13.96
2018-06-01T08:17:30.424Z,14.01
2018-06-01T08:18:30.346Z,14.01
2018-06-01T08:19:30.313Z,13.99
2018-06-01T08:20:31.644Z,13.85
2018-06-01T08:21:31.024Z,13.75
2018-06-01T08:22:30.310Z,13.64
2018-06-01T08:23:30.354Z,13.82
2018-06-01T08:24:30.355Z,13.76
2018-06-01T08:25:30.331Z,13.77
2018-06-01T08:26:30.388Z,13.78
2018-06-01T08:27:30.329Z,13.77
2018-06-01T08:28:30.315Z,13.83
2018-06-01T08:29:30.355Z,13.92
2018-06-01T08:30:30.465Z,13.92
2018-06-01T08:31:30.329Z,14
2018-06-01T08:32:30.623Z,14.07
2018-06-01T08:33:30.312Z,14.02
2018-06-01T08:34:30.330Z,13.91
2018-06-01T08:35:30.328Z,13.93
2018-06-01T08:36:30.948Z,13.73
2018-06-01T08:37:30.374Z,13.65
2018-06-01T08:38:30.381Z,13.57
2018-06-01T08:39:30.613Z,13.58
2018-06-01T08:40:30.361Z,13.61
2018-06-01T08:41:30.370Z,13.72
2018-06-01T08:42:30.329Z,13.89
2018-06-01T08:43:30.349Z,13.9
2018-06-01T08:44:30.350Z,13.78
2018-06-01T08:45:30.391Z,13.89
2018-06-01T08:46:30.794Z,13.37
2018-06-01T08:47:30.327Z,13.44
2018-06-01T08:48:30.315Z,13.56
2018-06-01T08:49:30.303Z,13.67
2018-06-01T08:50:30.349Z,13.56
2018-06-01T08:51:30.459Z,13.5
2018-06-01T08:52:30.873Z,13.57
2018-06-01T08:53:30.342Z,13.63
2018-06-01T08:54:30.479Z,13.58
2018-06-01T08:55:30.603Z,13.7
2018-06-01T08:56:30.507Z,13.69
2018-06-01T08:57:30.501Z,13.51
2018-06-01T08:58:30.373Z,13.63
2018-06-01T08:59:30.317Z,13.6
2018-06-01T09:00:30.435Z,13.44
2018-06-01T09:01:30.431Z,13.43
2018-06-01T09:02:30.582Z,13.62
2018-06-01T09:03:30.464Z,13.7
2018-06-01T09:04:30.691Z,13.61
2018-06-01T09:05:30.360Z,13.64
2018-06-01T09:06:30.476Z,13.83
2018-06-01T09:07:30.513Z,13.72
2018-06-01T09:08:30.355Z,13.79
2018-06-01T09:09:30.498Z,13.9
2018-06-01T09:10:30.376Z,13.9
2018-06-01T09:11:30.505Z,13.79
2018-06-01T09:12:30.497Z,13.57
2018-06-01T09:13:30.543Z,13.53
2018-06-01T09:14:30.405Z,13.63
2018-06-01T09:15:30.530Z,13.65
2018-06-01T09:16:30.388Z,13.65
2018-06-01T09:17:30.348Z,13.86
2018-06-01T09:18:30.558Z,13.7
2018-06-01T09:19:30.663Z,13.75
2018-06-01T09:20:30.571Z,13.71
2018-06-01T09:21:30.575Z,13.83
2018-06-01T09:22:30.573Z,13.84
2018-06-01T09:23:30.918Z,13.75
2018-06-01T09:24:30.529Z,13.93
2018-06-01T09:25:30.507Z,13.76
2018-06-01T09:26:30.513Z,13.78
2018-06-01T09:27:30.506Z,13.87
2018-06-01T09:28:30.828Z,13.83
2018-06-01T09:29:30.383Z,14.02
2018-06-01T09:30:30.456Z,14.01
2018-06-01T09:31:30.562Z,13.79
2018-06-01T09:32:30.655Z,13.44
2018-06-01T09:33:30.554Z,13.58
2018-06-01T09:34:31.253Z,13.74
2018-06-01T09:35:30.345Z,13.9
2018-06-01T09:36:30.575Z,13.91
2018-06-01T09:37:30.475Z,13.71
2018-06-01T09:38:30.391Z,13.69
2018-06-01T09:39:30.490Z,13.72
2018-06-01T09:40:30.483Z,13.8
2018-06-01T09:41:30.522Z,13.86
2018-06-01T09:42:30.626Z,13.92
2018-06-01T09:43:30.724Z,13.84
2018-06-01T09:44:30.520Z,13.85
2018-06-01T09:45:30.631Z,13.89
2018-06-01T09:46:30.543Z,13.73
2018-06-01T09:47:30.432Z,13.77
2018-06-01T09:48:30.460Z,13.88
2018-06-01T09:49:30.453Z,14.06
2018-06-01T09:50:30.571Z,14.02
2018-06-01T09:51:30.570Z,13.94
2018-06-01T09:52:30.495Z,13.83
2018-06-01T09:53:30.479Z,13.99
2018-06-01T09:54:30.485Z,14.01
2018-06-01T09:55:31.101Z,13.91
2018-06-01T09:56:30.496Z,13.95
2018-06-01T09:57:30.547Z,14.03
2018-06-01T09:58:30.367Z,14.03
2018-06-01T09:59:30.519Z,13.8
2018-06-01T10:00:30.610Z,13.63
2018-06-01T10:01:30.389Z,13.68
2018-06-01T10:02:30.579Z,13.68
2018-06-01T10:03:30.437Z,13.66
2018-06-01T10:04:30.575Z,13.81
2018-06-01T10:05:30.595Z,13.9
2018-06-01T10:06:30.632Z,13.98
2018-06-01T10:07:30.524Z,14.16
2018-06-01T10:08:30.446Z,14.25
2018-06-01T10:09:30.700Z,13.98
2018-06-01T10:10:30.376Z,13.99
2018-06-01T10:11:30.391Z,14.09
2018-06-01T10:12:30.530Z,14.28
2018-06-01T10:13:30.478Z,14.39
2018-06-01T10:14:30.430Z,14.13
2018-06-01T10:15:30.851Z,14.31
2018-06-01T10:16:30.543Z,13.89
2018-06-01T10:17:30.434Z,14.02
2018-06-01T10:18:30.543Z,14.07
2018-06-01T10:19:30.364Z,14.1
2018-06-01T10:20:30.426Z,14.05
2018-06-01T10:21:30.491Z,14.09
2018-06-01T10:22:30.517Z,14.21
2018-06-01T10:23:30.564Z,13.96
2018-06-01T10:24:30.585Z,13.9
2018-06-01T10:25:30.361Z,14
2018-06-01T10:26:30.627Z,14.02
2018-06-01T10:27:30.519Z,14.09
2018-06-01T10:28:30.720Z,13.98
2018-06-01T10:29:30.403Z,13.66
2018-06-01T10:30:30.548Z,13.55
2018-06-01T10:31:30.411Z,13.62
2018-06-01T10:32:30.433Z,13.63
2018-06-01T10:33:30.608Z,13.52
2018-06-01T10:34:30.572Z,13.76
2018-06-01T10:35:30.466Z,13.9
2018-06-01T10:36:30.777Z,14.02
2018-06-01T10:37:30.371Z,14.17
2018-06-01T10:38:30.388Z,13.99
2018-06-01T10:39:30.914Z,13.98
2018-06-01T10:40:30.383Z,13.83
2018-06-01T10:41:30.420Z,13.93
2018-06-01T10:42:30.619Z,13.94
2018-06-01T10:43:30.404Z,13.7
2018-06-01T10:44:30.587Z,13.54
2018-06-01T10:45:30.529Z,13.54
2018-06-01T10:46:30.548Z,13.75
2018-06-01T10:47:30.395Z,13.63
2018-06-01T10:48:30.543Z,13.66
2018-06-01T10:49:30.539Z,13.54
2018-06-01T10:50:30.408Z,13.37
2018-06-01T10:51:30.601Z,13.37
2018-06-01T10:52:30.586Z,13.51
2018-06-01T10:53:30.469Z,13.78
2018-06-01T10:54:30.888Z,13.75
2018-06-01T10:55:30.393Z,13.55
2018-06-01T10:56:30.817Z,13.54
2018-06-01T10:57:30.424Z,13.35
2018-06-01T10:58:30.420Z,13.25
2018-06-01T10:59:30.530Z,13.68
2018-06-01T11:00:30.415Z,13.65
2018-06-01T11:01:30.706Z,13.68
2018-06-01T11:02:30.564Z,13.78
2018-06-01T11:03:30.427Z,14
2018-06-01T11:04:30.423Z,14.17
2018-06-01T11:05:30.461Z,13.66
2018-06-01T11:06:30.433Z,13.28
2018-06-01T11:07:30.414Z,13.69
2018-06-01T11:08:30.535Z,13.9
2018-06-01T11:09:30.563Z,13.43
2018-06-01T11:10:30.416Z,13.64
2018-06-01T11:11:30.624Z,13.26
2018-06-01T11:12:30.500Z,13.13
2018-06-01T11:13:30.415Z,13.08
2018-06-01T11:14:31.009Z,12.79
2018-06-01T11:15:30.420Z,13.24
2018-06-01T11:16:30.429Z,12.98
2018-06-01T11:17:30.549Z,13.09
2018-06-01T11:18:30.548Z,12.96
2018-06-01T11:19:30.596Z,13.19
2018-06-01T11:20:30.578Z,13.22
2018-06-01T11:21:30.868Z,13.38
2018-06-01T11:22:30.454Z,13.2
2018-06-01T11:23:30.582Z,12.95
2018-06-01T11:24:32.542Z,12.78
2018-06-01T11:25:30.502Z,12.76
2018-06-01T11:26:30.500Z,12.94
2018-06-01T11:27:30.440Z,12.83
2018-06-01T11:28:30.428Z,12.81
2018-06-01T11:29:30.672Z,12.96
2018-06-01T11:30:30.524Z,12.83
2018-06-01T11:31:30.506Z,12.83
2018-06-01T11:32:30.577Z,12.78
2018-06-01T11:33:31.272Z,12.97
2018-06-01T11:34:30.462Z,13.06
2018-06-01T11:35:30.471Z,13.18
2018-06-01T11:36:30.592Z,13.27
2018-06-01T11:37:30.441Z,12.91
2018-06-01T11:38:30.690Z,13.01
2018-06-01T11:39:30.502Z,12.78
2018-06-01T11:40:30.610Z,13.19
2018-06-01T11:41:30.502Z,12.51
2018-06-01T11:42:30.450Z,12.62
2018-06-01T11:43:30.528Z,12.46
2018-06-01T11:44:30.649Z,12.53
2018-06-01T11:45:30.428Z,12.58
2018-06-01T11:46:30.485Z,12.58
2018-06-01T11:47:30.562Z,12.46
2018-06-01T11:48:30.555Z,12.34
2018-06-01T11:49:30.466Z,12.7
2018-06-01T11:50:30.579Z,12.81
2018-06-01T11:51:30.830Z,12.55
2018-06-01T11:52:30.466Z,12.62
2018-06-01T11:53:30.691Z,12.39
2018-06-01T11:54:30.459Z,12.57
2018-06-01T11:55:31.425Z,12.77
2018-06-01T11:56:30.716Z,12.64
2018-06-01T11:57:30.659Z,12.93
2018-06-01T11:58:30.492Z,12.59
2018-06-01T11:59:30.672Z,12.67
2018-06-01T12:00:30.474Z,12.82
2018-06-01T12:01:30.455Z,12.43
2018-06-01T12:02:30.447Z,12.62
2018-06-01T12:03:30.705Z,12.55
2018-06-01T12:04:30.460Z,12.79
2018-06-01T12:05:30.691Z,13.07
2018-06-01T12:06:30.473Z,12.93
2018-06-01T12:07:30.536Z,12.85
2018-06-01T12:08:30.584Z,12.85
2018-06-01T12:09:30.452Z,12.68
2018-06-01T12:10:30.500Z,13.01
2018-06-01T12:11:30.646Z,13.28
2018-06-01T12:12:30.456Z,12.93
2018-06-01T12:13:30.515Z,13.01
2018-06-01T12:14:30.444Z,13.18
2018-06-01T12:15:30.529Z,13.26
2018-06-01T12:16:30.450Z,12.79
2018-06-01T12:17:30.883Z,13.17
2018-06-01T12:18:30.447Z,13.13
2018-06-01T12:19:30.461Z,13.03
2018-06-01T12:20:30.581Z,12.87
2018-06-01T12:21:30.473Z,12.39
2018-06-01T12:22:30.450Z,12.59
2018-06-01T12:23:30.592Z,12.69
2018-06-01T12:24:30.451Z,12.5
2018-06-01T12:25:30.508Z,12.36
2018-06-01T12:26:30.510Z,12.49
2018-06-01T12:27:30.473Z,12.66
2018-06-01T12:28:30.545Z,12.71
2018-06-01T12:29:30.461Z,12.56
2018-06-01T12:30:30.641Z,12.62
2018-06-01T12:31:30.492Z,12.53
2018-06-01T12:32:30.660Z,12.85
2018-06-01T12:33:30.465Z,13.23
2018-06-01T12:34:30.510Z,12.95
2018-06-01T12:35:30.600Z,13.14
2018-06-01T12:36:30.733Z,12.9
2018-06-01T12:37:31.050Z,13.22
2018-06-01T12:38:30.774Z,12.33
2018-06-01T12:39:30.534Z,12.65
2018-06-01T12:40:30.468Z,12.64
2018-06-01T12:41:30.670Z,12.8
2018-06-01T12:42:30.501Z,12.96
2018-06-01T12:43:30.517Z,12.66
2018-06-01T12:44:30.558Z,12.78
2018-06-01T12:45:30.539Z,13.18
2018-06-01T12:46:30.463Z,12.97
2018-06-01T12:47:30.657Z,12.62
2018-06-01T12:48:30.586Z,12.69
2018-06-01T12:49:30.568Z,12.71
2018-06-01T12:50:30.718Z,13.03
2018-06-01T12:51:30.573Z,12.78
2018-06-01T12:52:30.547Z,12.94
2018-06-01T12:53:30.710Z,12.84
2018-06-01T12:54:30.599Z,12.69
2018-06-01T12:55:30.702Z,12.83